Time;durP1;ratioP1;P1;durP2;ratioP2;P2;SDS_P1;SDS_P2;PMS_P1;PMS_P2;Temp;Humidity;BMP_temperature;BMP_pressure;BME280_temperature;BME280_humidity;BME280_pressure;Samples;Min_cycle;Max_cycle;Signal;HPM_P1;HPM_P2
2023/11/25 00:02:29;;;;;;;3.40;1.83;;;;;;;;;;5012600;28;20105;-69
2023/11/25 00:05:16;;;;;;;6.40;2.78;;;;;;;;;;5012032;28;20041;-69
2023/11/25 00:08:01;;;;;;;4.10;2.80;;;;;;;;;;5011996;28;20403;-69
2023/11/25 00:10:47;;;;;;;12.52;3.65;;;;;;;;;;5012286;28;20032;-69
2023/11/25 00:13:33;;;;;;;7.50;2.47;;;;;;;;;;5012113;28;20025;-69
2023/11/25 00:16:19;;;;;;;3.40;1.80;;;;;;;;;;5012324;28;20033;-69
2023/11/25 00:19:05;;;;;;;2.75;1.70;;;;;;;;;;5012583;28;20510;-69
2023/11/25 00:21:51;;;;;;;3.35;2.00;;;;;;;;;;5012398;28;20026;-69
2023/11/25 00:24:37;;;;;;;6.40;1.67;;;;;;;;;;5012953;28;20061;-69
2023/11/25 00:27:22;;;;;;;5.32;2.30;;;;;;;;;;5012558;28;20511;-69
2023/11/25 00:30:08;;;;;;;8.68;2.30;;;;;;;;;;5012769;28;20030;-69
2023/11/25 00:32:54;;;;;;;2.15;1.42;;;;;;;;;;5012743;28;20457;-69
2023/11/25 00:35:43;;;;;;;5.32;1.88;;;;;;;;;;5011787;28;20026;-69
2023/11/25 00:38:28;;;;;;;2.33;1.52;;;;;;;;;;5011890;28;20053;-69
2023/11/25 00:41:14;;;;;;;4.28;1.48;;;;;;;;;;5012038;28;20034;-69
2023/11/25 00:44:00;;;;;;;4.03;1.63;;;;;;;;;;5011733;28;20056;-69
2023/11/25 00:46:45;;;;;;;3.40;1.63;;;;;;;;;;5011322;28;20112;-69
2023/11/25 00:49:36;;;;;;;4.72;1.20;;;;;;;;;;5012675;28;20025;-69
2023/11/25 00:52:22;;;;;;;4.25;1.17;;;;;;;;;;5012584;28;20022;-69
2023/11/25 00:55:08;;;;;;;2.53;1.75;;;;;;;;;;5012566;28;20022;-69
2023/11/25 00:57:54;;;;;;;2.22;1.83;;;;;;;;;;5011931;28;20056;-69
2023/11/25 01:00:39;;;;;;;2.22;1.90;;;;;;;;;;5012402;28;20061;-69
2023/11/25 01:03:25;;;;;;;4.80;1.73;;;;;;;;;;5011662;28;20565;-69
2023/11/25 01:06:11;;;;;;;4.78;1.48;;;;;;;;;;5012001;28;20450;-69
2023/11/25 01:08:56;;;;;;;8.93;1.63;;;;;;;;;;5011663;28;20533;-69
2023/11/25 01:11:42;;;;;;;3.55;1.42;;;;;;;;;;5011745;28;20033;-69
2023/11/25 01:14:28;;;;;;;2.33;1.17;;;;;;;;;;5011384;28;20114;-69
2023/11/25 01:17:14;;;;;;;3.90;1.58;;;;;;;;;;5011680;28;20109;-69
2023/11/25 01:19:59;;;;;;;7.10;1.48;;;;;;;;;;5011840;28;20034;-69
2023/11/25 01:22:47;;;;;;;9.00;1.70;;;;;;;;;;5009261;28;20057;-69
2023/11/25 01:25:33;;;;;;;2.53;1.33;;;;;;;;;;5014034;28;20095;-69
2023/11/25 01:28:19;;;;;;;1.60;1.20;;;;;;;;;;5001926;28;20026;-69
2023/11/25 01:31:06;;;;;;;3.35;1.70;;;;;;;;;;5015512;28;20057;-69
2023/11/25 01:33:51;;;;;;;4.13;1.52;;;;;;;;;;5014809;28;20025;-69
2023/11/25 01:36:37;;;;;;;3.70;1.30;;;;;;;;;;5015587;28;20492;-69
2023/11/25 01:39:24;;;;;;;2.40;1.02;;;;;;;;;;5015246;28;20056;-69
2023/11/25 01:42:10;;;;;;;4.38;1.52;;;;;;;;;;5015087;28;20026;-69
2023/11/25 01:44:56;;;;;;;5.85;1.70;;;;;;;;;;5015270;28;20449;-69
2023/11/25 01:47:42;;;;;;;9.95;1.80;;;;;;;;;;5014379;28;20192;-69
2023/11/25 01:50:33;;;;;;;4.25;1.65;;;;;;;;;;5002794;28;20025;-69
2023/11/25 01:53:19;;;;;;;2.50;1.42;;;;;;;;;;5008897;28;20029;-69
2023/11/25 01:56:05;;;;;;;3.90;1.67;;;;;;;;;;5015800;28;20382;-69
2023/11/25 01:58:51;;;;;;;8.15;1.80;;;;;;;;;;5014808;28;20033;-69
2023/11/25 02:01:37;;;;;;;8.15;2.03;;;;;;;;;;5014790;28;20398;-69
2023/11/25 02:04:22;;;;;;;6.40;1.48;;;;;;;;;;5015867;28;20026;-69
2023/11/25 02:07:10;;;;;;;5.70;1.48;;;;;;;;;;5000532;28;20030;-69
2023/11/25 02:09:55;;;;;;;15.18;1.80;;;;;;;;;;4981423;28;20418;-69
2023/11/25 02:12:41;;;;;;;3.90;1.75;;;;;;;;;;4995241;28;20029;-69
2023/11/25 02:15:27;;;;;;;4.82;1.63;;;;;;;;;;4995176;28;20030;-69
2023/11/25 02:18:13;;;;;;;2.88;1.52;;;;;;;;;;4996063;28;20034;-69
2023/11/25 02:20:59;;;;;;;6.60;1.80;;;;;;;;;;4980895;28;20465;-69
2023/11/25 02:23:44;;;;;;;4.82;2.17;;;;;;;;;;4994340;28;20050;-69
2023/11/25 02:26:30;;;;;;;6.88;2.05;;;;;;;;;;4993946;28;20037;-70
2023/11/25 02:29:16;;;;;;;10.52;4.57;;;;;;;;;;4994457;28;20033;-69
2023/11/25 02:32:03;;;;;;;36.67;14.13;;;;;;;;;;4994609;28;20034;-69
2023/11/25 02:34:49;;;;;;;13.27;3.88;;;;;;;;;;4995820;28;20025;-69
2023/11/25 02:37:34;;;;;;;4.97;1.52;;;;;;;;;;4986599;28;20149;-69
2023/11/25 02:40:20;;;;;;;6.05;2.00;;;;;;;;;;5013961;28;20033;-70
2023/11/25 02:43:07;;;;;;;5.95;1.50;;;;;;;;;;5013964;28;20084;-69
2023/11/25 02:45:53;;;;;;;5.68;2.42;;;;;;;;;;5014155;28;20037;-69
2023/11/25 02:48:39;;;;;;;7.88;2.40;;;;;;;;;;5014491;28;20033;-69
2023/11/25 02:51:24;;;;;;;6.53;1.95;;;;;;;;;;5013119;28;20065;-69
2023/11/25 02:54:10;;;;;;;9.57;2.03;;;;;;;;;;4981589;28;20105;-69
2023/11/25 02:56:56;;;;;;;7.53;1.55;;;;;;;;;;4998119;28;20018;-69
2023/11/25 02:59:42;;;;;;;12.52;1.83;;;;;;;;;;4980949;28;20422;-68
2023/11/25 03:02:28;;;;;;;5.07;1.30;;;;;;;;;;4994266;28;20019;-69
2023/11/25 03:05:14;;;;;;;9.02;1.90;;;;;;;;;;4994244;28;20037;-69
2023/11/25 03:08:00;;;;;;;1.70;1.10;;;;;;;;;;4997267;28;20105;-69
2023/11/25 03:10:50;;;;;;;8.65;1.27;;;;;;;;;;5014539;28;20079;-69
2023/11/25 03:13:37;;;;;;;1.92;1.35;;;;;;;;;;5013869;28;20018;-69
2023/11/25 03:16:24;;;;;;;4.68;1.52;;;;;;;;;;5013983;28;20084;-69
2023/11/25 03:19:10;;;;;;;5.75;1.33;;;;;;;;;;5013899;28;20025;-69
2023/11/25 03:21:56;;;;;;;7.32;1.70;;;;;;;;;;5013199;28;20022;-69
2023/11/25 03:24:42;;;;;;;5.30;1.75;;;;;;;;;;5014044;28;20407;-69
2023/11/25 03:27:31;;;;;;;8.27;2.63;;;;;;;;;;5013399;28;20061;-69
2023/11/25 03:30:17;;;;;;;1.45;1.00;;;;;;;;;;5013840;28;20402;-69
2023/11/25 03:33:04;;;;;;;2.75;1.02;;;;;;;;;;5013415;28;20018;-69
2023/11/25 03:35:50;;;;;;;2.40;1.30;;;;;;;;;;5014038;28;20022;-69
2023/11/25 03:38:35;;;;;;;1.20;0.82;;;;;;;;;;5013395;28;20029;-69
2023/11/25 03:41:23;;;;;;;1.05;0.98;;;;;;;;;;5013482;28;20491;-67
2023/11/25 03:44:08;;;;;;;3.33;1.83;;;;;;;;;;5012686;28;20105;-68
2023/11/25 03:46:54;;;;;;;5.63;2.58;;;;;;;;;;5013457;28;20561;-69
2023/11/25 03:49:40;;;;;;;4.32;2.22;;;;;;;;;;5013436;28;20423;-69
2023/11/25 03:52:25;;;;;;;5.05;2.28;;;;;;;;;;5007975;28;20451;-69
2023/11/25 03:55:11;;;;;;;2.30;0.88;;;;;;;;;;4993160;28;20514;-69
2023/11/25 03:57:57;;;;;;;0.88;0.88;;;;;;;;;;5006163;28;20521;-69
2023/11/25 04:00:43;;;;;;;2.65;1.38;;;;;;;;;;4994136;28;20030;-69
2023/11/25 04:03:28;;;;;;;0.85;0.85;;;;;;;;;;4992927;28;20019;-69
2023/11/25 04:06:14;;;;;;;3.67;1.50;;;;;;;;;;4993185;28;20526;-69
2023/11/25 04:09:00;;;;;;;1.20;1.02;;;;;;;;;;4993983;28;20034;-69
2023/11/25 04:11:45;;;;;;;1.95;1.55;;;;;;;;;;4979169;28;20022;-69
2023/11/25 04:14:31;;;;;;;1.13;1.10;;;;;;;;;;4992401;28;20381;-69
2023/11/25 04:17:17;;;;;;;0.75;0.75;;;;;;;;;;4993210;28;20049;-69
2023/11/25 04:20:12;;;;;;;5.53;1.42;;;;;;;;;;4992907;28;20022;-69
2023/11/25 04:23:05;;;;;;;2.17;1.15;;;;;;;;;;4980437;28;20054;-69
2023/11/25 04:25:51;;;;;;;2.15;1.02;;;;;;;;;;4992409;28;20030;-69
2023/11/25 04:28:39;;;;;;;2.58;1.02;;;;;;;;;;4992426;28;20373;-69
2023/11/25 04:31:26;;;;;;;3.53;0.77;;;;;;;;;;4992794;28;20037;-69
2023/11/25 04:34:12;;;;;;;2.47;0.93;;;;;;;;;;4992312;28;20062;-69
2023/11/25 04:36:58;;;;;;;1.42;1.33;;;;;;;;;;4992709;28;20542;-67
2023/11/25 04:39:44;;;;;;;3.42;1.10;;;;;;;;;;4993789;28;20415;-67
2023/11/25 04:42:30;;;;;;;1.85;1.05;;;;;;;;;;4992394;28;20030;-67
2023/11/25 04:45:16;;;;;;;1.05;1.02;;;;;;;;;;4980679;28;20160;-67
2023/11/25 04:48:02;;;;;;;1.55;1.33;;;;;;;;;;5011508;28;20510;-67
2023/11/25 04:50:48;;;;;;;1.55;1.10;;;;;;;;;;5007000;28;20034;-67
2023/11/25 04:53:34;;;;;;;3.05;1.85;;;;;;;;;;5003586;28;20025;-67
2023/11/25 04:56:19;;;;;;;3.58;1.45;;;;;;;;;;4992027;28;20503;-67
2023/11/25 04:59:06;;;;;;;1.65;1.55;;;;;;;;;;4993067;28;20054;-67
2023/11/25 05:01:52;;;;;;;5.88;1.63;;;;;;;;;;4982968;28;20101;-67
2023/11/25 05:04:37;;;;;;;4.25;1.38;;;;;;;;;;4996468;28;20033;-67
2023/11/25 05:07:23;;;;;;;5.13;2.10;;;;;;;;;;4995451;28;20030;-67
2023/11/25 05:10:09;;;;;;;6.20;1.65;;;;;;;;;;4996464;28;20030;-68
2023/11/25 05:12:55;;;;;;;7.10;1.17;;;;;;;;;;4996547;28;20022;-69
2023/11/25 05:15:41;;;;;;;1.98;1.33;;;;;;;;;;4995940;28;20022;-69
2023/11/25 05:18:27;;;;;;;1.65;1.17;;;;;;;;;;4982223;28;20053;-69
2023/11/25 05:21:13;;;;;;;8.20;1.95;;;;;;;;;;4999980;28;20048;-69
2023/11/25 05:23:58;;;;;;;8.73;1.75;;;;;;;;;;5007444;28;20372;-69
2023/11/25 05:26:44;;;;;;;7.72;1.77;;;;;;;;;;5002511;28;20117;-69
2023/11/25 05:29:30;;;;;;;8.35;1.50;;;;;;;;;;5015259;28;20018;-69
2023/11/25 05:32:15;;;;;;;11.77;2.15;;;;;;;;;;4998083;28;20373;-69
2023/11/25 05:35:01;;;;;;;10.35;2.60;;;;;;;;;;4995523;28;20024;-69
2023/11/25 05:37:48;;;;;;;7.82;2.10;;;;;;;;;;4995393;28;20407;-69
2023/11/25 05:40:36;;;;;;;11.02;2.53;;;;;;;;;;4995720;28;20026;-69
2023/11/25 05:43:24;;;;;;;9.32;1.95;;;;;;;;;;4995868;28;20035;-69
2023/11/25 05:46:10;;;;;;;10.85;1.88;;;;;;;;;;4981263;28;20089;-69
2023/11/25 05:48:55;;;;;;;11.95;2.25;;;;;;;;;;4997020;28;20018;-69
2023/11/25 05:51:45;;;;;;;8.15;2.05;;;;;;;;;;4994975;28;20033;-68
2023/11/25 05:54:31;;;;;;;6.22;1.95;;;;;;;;;;4995438;28;20034;-69
2023/11/25 05:57:16;;;;;;;4.55;1.92;;;;;;;;;;4995339;28;20108;-69
2023/11/25 06:00:03;;;;;;;10.55;1.48;;;;;;;;;;4982377;28;20507;-69
2023/11/25 06:02:48;;;;;;;7.82;1.90;;;;;;;;;;5013528;28;20116;-68
2023/11/25 06:05:34;;;;;;;14.98;2.15;;;;;;;;;;4999996;28;20418;-68
2023/11/25 06:08:20;;;;;;;16.40;3.35;;;;;;;;;;5012778;28;20480;-68
2023/11/25 06:11:06;;;;;;;4.60;1.67;;;;;;;;;;5009564;28;20033;-68
2023/11/25 06:13:53;;;;;;;9.25;2.33;;;;;;;;;;5005393;28;20101;-68
2023/11/25 06:16:41;;;;;;;11.50;2.22;;;;;;;;;;5002426;28;20030;-68
2023/11/25 06:19:29;;;;;;;13.68;2.03;;;;;;;;;;5014180;28;20372;-68
2023/11/25 06:22:14;;;;;;;6.65;2.17;;;;;;;;;;4999520;28;20109;-68
2023/11/25 06:25:04;;;;;;;12.48;2.72;;;;;;;;;;4997924;28;20085;-68
2023/11/25 06:27:49;;;;;;;9.45;2.08;;;;;;;;;;4982006;28;20034;-69
2023/11/25 06:30:35;;;;;;;13.75;2.15;;;;;;;;;;5012658;28;20104;-68
2023/11/25 06:33:24;;;;;;;12.90;2.13;;;;;;;;;;5000680;28;20018;-69
2023/11/25 06:36:10;;;;;;;8.45;1.83;;;;;;;;;;4997934;28;20053;-68
2023/11/25 06:38:55;;;;;;;10.15;2.05;;;;;;;;;;5012176;28;20462;-68
2023/11/25 06:41:44;;;;;;;9.35;2.33;;;;;;;;;;5013094;28;20021;-69
2023/11/25 06:44:30;;;;;;;9.45;2.38;;;;;;;;;;4994419;28;20400;-69
2023/11/25 06:47:15;;;;;;;2.00;1.42;;;;;;;;;;4994226;28;20032;-69
2023/11/25 06:50:01;;;;;;;7.10;1.70;;;;;;;;;;4994208;28;20022;-68
2023/11/25 06:52:46;;;;;;;6.80;2.25;;;;;;;;;;4994305;28;20030;-68
2023/11/25 06:55:32;;;;;;;3.20;1.70;;;;;;;;;;4994047;28;20476;-68
2023/11/25 06:58:18;;;;;;;10.52;1.83;;;;;;;;;;4994538;28;20113;-69
2023/11/25 07:01:06;;;;;;;3.38;1.67;;;;;;;;;;4993608;28;20113;-69
2023/11/25 07:03:52;;;;;;;3.00;2.25;;;;;;;;;;4994061;28;20374;-69
2023/11/25 07:06:38;;;;;;;12.02;1.85;;;;;;;;;;4993818;28;20492;-69
2023/11/25 07:09:24;;;;;;;3.58;1.40;;;;;;;;;;4993577;28;20468;-69
2023/11/25 07:12:10;;;;;;;7.15;2.20;;;;;;;;;;4993239;28;20609;-69
2023/11/25 07:14:55;;;;;;;9.52;2.30;;;;;;;;;;4979693;28;20061;-69
2023/11/25 07:17:42;;;;;;;8.65;2.08;;;;;;;;;;4993354;28;20455;-69
2023/11/25 07:20:28;;;;;;;10.63;2.50;;;;;;;;;;4993681;28;20033;-69
2023/11/25 07:23:14;;;;;;;5.55;2.45;;;;;;;;;;4978168;28;20475;-69
2023/11/25 07:26:00;;;;;;;9.30;1.80;;;;;;;;;;4979285;28;20038;-68
2023/11/25 07:28:45;;;;;;;12.02;2.72;;;;;;;;;;4993668;28;20022;-68
2023/11/25 07:31:32;;;;;;;9.25;2.00;;;;;;;;;;4980107;28;20061;-69
2023/11/25 07:34:18;;;;;;;6.07;1.63;;;;;;;;;;4995273;28;20022;-69
2023/11/25 07:37:05;;;;;;;9.00;1.80;;;;;;;;;;4995906;28;20055;-69
2023/11/25 07:39:51;;;;;;;9.40;1.92;;;;;;;;;;4994444;28;20117;-69
2023/11/25 07:42:39;;;;;;;14.73;3.63;;;;;;;;;;4993912;28;20037;-69
2023/11/25 07:45:25;;;;;;;9.00;2.15;;;;;;;;;;5012598;28;20030;-69
2023/11/25 07:48:11;;;;;;;5.55;1.58;;;;;;;;;;5012165;28;20105;-69
2023/11/25 07:50:58;;;;;;;6.10;1.88;;;;;;;;;;5012846;28;20040;-69
2023/11/25 07:53:43;;;;;;;8.68;2.13;;;;;;;;;;4993392;28;20022;-69
2023/11/25 07:56:29;;;;;;;7.60;1.98;;;;;;;;;;4992750;28;20034;-69
2023/11/25 07:59:14;;;;;;;7.97;1.85;;;;;;;;;;4993417;28;20124;-69
2023/11/25 08:02:00;;;;;;;6.10;1.42;;;;;;;;;;4992915;28;20019;-68
2023/11/25 08:04:46;;;;;;;3.05;1.60;;;;;;;;;;4992519;28;20033;-68
2023/11/25 08:07:31;;;;;;;4.88;1.73;;;;;;;;;;4992894;28;20041;-68
2023/11/25 08:10:18;;;;;;;3.45;1.67;;;;;;;;;;4992455;28;20081;-68
2023/11/25 08:13:03;;;;;;;8.10;2.00;;;;;;;;;;4993096;28;20029;-68
2023/11/25 08:15:49;;;;;;;7.45;1.88;;;;;;;;;;4993160;28;20026;-69
2023/11/25 08:18:35;;;;;;;4.10;1.38;;;;;;;;;;4992555;28;20022;-69
2023/11/25 08:21:20;;;;;;;8.40;1.40;;;;;;;;;;4978941;28;20029;-69
2023/11/25 08:24:06;;;;;;;3.97;1.83;;;;;;;;;;4978039;28;20048;-68
2023/11/25 08:26:52;;;;;;;7.55;2.10;;;;;;;;;;4995810;28;20109;-69
2023/11/25 08:29:38;;;;;;;2.13;1.52;;;;;;;;;;4992088;28;20037;-69
2023/11/25 08:32:23;;;;;;;5.45;1.50;;;;;;;;;;4984746;28;20030;-69
2023/11/25 08:35:09;;;;;;;3.05;1.90;;;;;;;;;;5011077;28;20034;-69
2023/11/25 08:37:55;;;;;;;4.72;1.60;;;;;;;;;;4998527;28;20084;-69
2023/11/25 08:40:41;;;;;;;3.08;1.65;;;;;;;;;;4992483;28;20053;-69
2023/11/25 08:43:29;;;;;;;3.83;1.63;;;;;;;;;;4978722;28;20026;-69
2023/11/25 08:46:19;;;;;;;2.63;1.55;;;;;;;;;;4991880;28;20073;-68
2023/11/25 08:49:06;;;;;;;3.33;1.33;;;;;;;;;;4993273;28;20019;-69
2023/11/25 08:51:52;;;;;;;5.72;1.85;;;;;;;;;;4992531;28;20060;-69
2023/11/25 08:54:37;;;;;;;8.85;2.55;;;;;;;;;;4991586;28;20075;-69
2023/11/25 08:57:23;;;;;;;3.45;1.45;;;;;;;;;;4978691;28;20026;-69
2023/11/25 09:00:18;;;;;;;6.32;2.97;;;;;;;;;;4992127;28;20054;-69
2023/11/25 09:03:07;;;;;;;7.40;2.17;;;;;;;;;;4992130;28;20117;-69
2023/11/25 09:05:52;;;;;;;3.20;1.75;;;;;;;;;;4993112;28;20034;-69
2023/11/25 09:08:38;;;;;;;10.63;2.42;;;;;;;;;;4978315;28;20019;-69
2023/11/25 09:11:25;;;;;;;4.70;1.80;;;;;;;;;;4992224;28;20057;-69
2023/11/25 09:14:12;;;;;;;4.18;1.35;;;;;;;;;;4991566;28;20031;-69
2023/11/25 09:16:57;;;;;;;4.20;1.58;;;;;;;;;;4977811;28;20041;-68
2023/11/25 09:19:44;;;;;;;8.98;2.00;;;;;;;;;;4991748;28;20034;-69
2023/11/25 09:22:30;;;;;;;4.97;1.50;;;;;;;;;;4977428;28;20030;-69
2023/11/25 09:25:16;;;;;;;4.43;1.52;;;;;;;;;;4991990;28;20125;-69
2023/11/25 09:28:03;;;;;;;4.10;1.60;;;;;;;;;;4991563;28;20546;-69
2023/11/25 09:30:49;;;;;;;5.28;1.65;;;;;;;;;;4996011;28;20034;-69
2023/11/25 09:33:36;;;;;;;17.25;2.53;;;;;;;;;;4992644;28;20026;-69
2023/11/25 09:36:22;;;;;;;3.33;1.42;;;;;;;;;;4929294;28;1846948;-69
2023/11/25 09:39:09;;;;;;;5.10;1.45;;;;;;;;;;4991315;28;20398;-69
2023/11/25 09:41:55;;;;;;;7.30;2.42;;;;;;;;;;4991276;28;20022;-69
2023/11/25 09:44:40;;;;;;;2.08;1.77;;;;;;;;;;4991294;28;20217;-69
2023/11/25 09:47:27;;;;;;;2.88;1.70;;;;;;;;;;4995300;28;20459;-69
2023/11/25 09:50:13;;;;;;;1.77;1.25;;;;;;;;;;4981052;28;20050;-69
2023/11/25 09:53:03;;;;;;;5.05;1.83;;;;;;;;;;4994890;28;20022;-69
2023/11/25 09:56:05;;;;;;;4.63;2.03;;;;;;;;;;4993139;28;20034;-69
2023/11/25 09:58:51;;;;;;;1.35;1.05;;;;;;;;;;4995224;28;20026;-69
2023/11/25 10:01:37;;;;;;;1.52;1.30;;;;;;;;;;4993828;28;20037;-69
2023/11/25 10:04:23;;;;;;;1.83;1.30;;;;;;;;;;4993866;28;20085;-69
2023/11/25 10:07:11;;;;;;;3.15;1.25;;;;;;;;;;4993338;28;20033;-69
2023/11/25 10:09:57;;;;;;;5.15;1.60;;;;;;;;;;4994819;28;20407;-69
2023/11/25 10:12:42;;;;;;;1.55;1.45;;;;;;;;;;4994502;28;20030;-67
2023/11/25 10:15:28;;;;;;;7.18;1.48;;;;;;;;;;4993413;28;20027;-67
2023/11/25 10:18:13;;;;;;;3.17;1.55;;;;;;;;;;4994788;28;20035;-67
2023/11/25 10:20:59;;;;;;;2.38;1.55;;;;;;;;;;4994449;28;20611;-67
2023/11/25 10:23:45;;;;;;;1.77;1.13;;;;;;;;;;4993446;28;20022;-67
2023/11/25 10:26:31;;;;;;;2.80;1.38;;;;;;;;;;4988187;28;20026;-69
2023/11/25 10:29:19;;;;;;;5.10;2.15;;;;;;;;;;4975305;28;20027;-69
2023/11/25 10:32:07;;;;;;;3.20;1.35;;;;;;;;;;4974742;28;20554;-69
2023/11/25 10:34:56;;;;;;;2.95;1.20;;;;;;;;;;4975111;28;20026;-69
2023/11/25 10:37:42;;;;;;;2.78;1.20;;;;;;;;;;4973443;28;20023;-69
2023/11/25 10:40:27;;;;;;;5.30;1.83;;;;;;;;;;4973312;28;20062;-69
2023/11/25 10:43:13;;;;;;;1.70;1.30;;;;;;;;;;4974435;28;20039;-69
2023/11/25 10:46:02;;;;;;;3.38;1.30;;;;;;;;;;4974601;28;20027;-68
2023/11/25 10:48:48;;;;;;;1.92;1.23;;;;;;;;;;4974236;28;20382;-69
2023/11/25 10:51:37;;;;;;;5.35;1.42;;;;;;;;;;4974599;28;20027;-69
2023/11/25 10:54:26;;;;;;;3.70;1.40;;;;;;;;;;4973921;28;20022;-69
2023/11/25 10:57:12;;;;;;;4.80;1.52;;;;;;;;;;4974439;28;20019;-69
2023/11/25 10:59:58;;;;;;;2.45;1.45;;;;;;;;;;4972462;28;20034;-69
2023/11/25 11:02:50;;;;;;;3.03;1.52;;;;;;;;;;4974202;28;20030;-69
2023/11/25 11:05:45;;;;;;;3.90;1.60;;;;;;;;;;4973420;28;20403;-69
2023/11/25 11:08:32;;;;;;;4.28;1.63;;;;;;;;;;4974421;28;20105;-68
2023/11/25 11:11:31;;;;;;;4.97;1.35;;;;;;;;;;4973781;28;20031;-68
2023/11/25 11:14:20;;;;;;;4.57;1.48;;;;;;;;;;4960055;28;20019;-68
2023/11/25 11:17:24;;;;;;;1.75;1.40;;;;;;;;;;4973624;28;20027;-69
2023/11/25 11:20:12;;;;;;;3.78;1.33;;;;;;;;;;4973714;28;20023;-69
2023/11/25 11:22:59;;;;;;;4.10;2.15;;;;;;;;;;4974732;28;20099;-69
2023/11/25 11:25:58;;;;;;;4.20;2.17;;;;;;;;;;4974415;28;20030;-69
2023/11/25 11:28:48;;;;;;;3.08;1.52;;;;;;;;;;4972554;28;20034;-68
2023/11/25 11:31:59;;;;;;;5.82;1.30;;;;;;;;;;4972440;28;20213;-67
2023/11/25 11:34:45;;;;;;;5.57;2.00;;;;;;;;;;4974791;28;20461;-69
2023/11/25 11:37:37;;;;;;;7.07;1.58;;;;;;;;;;4973432;28;20026;-69
2023/11/25 11:40:24;;;;;;;3.97;1.83;;;;;;;;;;4974446;28;20031;-69
2023/11/25 11:43:18;;;;;;;3.60;1.40;;;;;;;;;;4959654;28;20038;-67
2023/11/25 11:46:04;;;;;;;2.60;1.63;;;;;;;;;;5006330;22;20033;-67
2023/11/25 11:48:51;;;;;;;4.43;1.50;;;;;;;;;;5032612;28;20560;-67
2023/11/25 11:51:36;;;;;;;7.80;1.40;;;;;;;;;;5027060;28;20029;-68
2023/11/25 11:54:23;;;;;;;12.10;2.50;;;;;;;;;;4993812;28;20015;-67
2023/11/25 11:57:13;;;;;;;1.48;1.10;;;;;;;;;;4967626;28;20062;-68
2023/11/25 11:59:59;;;;;;;3.38;1.48;;;;;;;;;;4994078;28;20034;-67
2023/11/25 12:02:47;;;;;;;1.60;1.30;;;;;;;;;;4994140;28;20030;-67
2023/11/25 12:05:33;;;;;;;3.65;1.38;;;;;;;;;;4993511;28;20029;-67
2023/11/25 12:08:20;;;;;;;2.00;1.55;;;;;;;;;;4973557;28;20455;-67
2023/11/25 12:11:06;;;;;;;5.38;1.33;;;;;;;;;;4959784;28;20058;-69
2023/11/25 12:13:53;;;;;;;1.45;1.33;;;;;;;;;;4974890;28;20034;-67
2023/11/25 12:16:38;;;;;;;4.38;1.23;;;;;;;;;;4972894;28;20385;-68
2023/11/25 12:19:24;;;;;;;3.45;1.27;;;;;;;;;;4973756;28;20022;-67
2023/11/25 12:22:11;;;;;;;4.88;1.33;;;;;;;;;;4973337;28;20466;-67
2023/11/25 12:24:57;;;;;;;2.03;1.40;;;;;;;;;;4974474;28;20499;-69
2023/11/25 12:27:47;;;;;;;2.75;1.30;;;;;;;;;;4973473;28;20393;-67
2023/11/25 12:30:40;;;;;;;1.38;1.00;;;;;;;;;;4960067;28;20023;-67
2023/11/25 12:33:26;;;;;;;4.13;1.50;;;;;;;;;;4974476;28;20081;-68
2023/11/25 12:36:12;;;;;;;1.45;1.35;;;;;;;;;;4977003;28;20110;-68
2023/11/25 12:38:58;;;;;;;3.17;1.10;;;;;;;;;;4992116;28;20026;-67
2023/11/25 12:41:43;;;;;;;1.40;1.30;;;;;;;;;;4991604;28;20105;-68
2023/11/25 12:44:46;;;;;;;1.50;1.25;;;;;;;;;;4973460;28;20489;-68
2023/11/25 12:47:35;;;;;;;;;;;;;;;;;;4958603;28;20479;-68
2023/11/25 12:50:22;;;;;;;1.98;1.42;;;;;;;;;;4973780;28;19997;-67
2023/11/25 12:53:09;;;;;;;2.83;1.38;;;;;;;;;;4972709;28;20019;-68
2023/11/25 12:55:57;;;;;;;1.20;1.10;;;;;;;;;;4973370;28;20050;-68
2023/11/25 12:58:46;;;;;;;2.75;1.48;;;;;;;;;;4959016;28;20027;-67
2023/11/25 13:01:32;;;;;;;3.00;1.23;;;;;;;;;;4974326;28;20023;-68
2023/11/25 13:04:18;;;;;;;2.70;1.50;;;;;;;;;;4972979;28;20061;-68
2023/11/25 13:07:04;;;;;;;2.30;1.55;;;;;;;;;;4973269;28;20081;-68
2023/11/25 13:09:49;;;;;;;2.22;1.42;;;;;;;;;;4973111;28;20026;-67
2023/11/25 13:12:36;;;;;;;2.60;1.30;;;;;;;;;;4958854;28;20022;-68
2023/11/25 13:15:23;;;;;;;6.90;1.75;;;;;;;;;;4972646;28;20022;-68
2023/11/25 13:18:09;;;;;;;5.10;0.95;;;;;;;;;;4973009;28;20508;-67
2023/11/25 13:20:55;;;;;;;2.92;1.35;;;;;;;;;;4975391;28;20099;-68
2023/11/25 13:23:41;;;;;;;6.10;1.50;;;;;;;;;;4976724;28;20040;-67
2023/11/25 13:26:30;;;;;;;2.90;1.25;;;;;;;;;;4983802;28;20445;-68
2023/11/25 13:29:16;;;;;;;5.40;1.10;;;;;;;;;;4982027;28;20381;-67
2023/11/25 13:32:01;;;;;;;6.88;1.67;;;;;;;;;;4983365;28;20034;-67
2023/11/25 13:34:47;;;;;;;1.38;0.98;;;;;;;;;;4994152;28;20438;-67
2023/11/25 13:37:35;;;;;;;1.88;1.58;;;;;;;;;;4981881;28;20022;-67
2023/11/25 13:40:27;;;;;;;4.35;1.77;;;;;;;;;;4977263;28;20488;-67
2023/11/25 13:43:13;;;;;;;2.00;1.13;;;;;;;;;;4975998;28;20069;-67
2023/11/25 13:45:59;;;;;;;2.45;1.23;;;;;;;;;;4961837;28;20404;-67
2023/11/25 13:48:44;;;;;;;6.60;1.33;;;;;;;;;;4976066;28;20033;-67
2023/11/25 13:51:30;;;;;;;2.63;1.50;;;;;;;;;;4977423;28;20502;-67
2023/11/25 13:54:16;;;;;;;7.93;2.30;;;;;;;;;;4975798;28;20027;-67
2023/11/25 13:57:01;;;;;;;1.73;1.38;;;;;;;;;;4976446;28;20027;-67
2023/11/25 13:59:47;;;;;;;1.20;1.10;;;;;;;;;;4976757;28;20058;-68
2023/11/25 14:02:33;;;;;;;4.57;1.60;;;;;;;;;;4977016;28;20026;-67
2023/11/25 14:05:19;;;;;;;3.38;1.48;;;;;;;;;;4975822;28;20415;-67
2023/11/25 14:08:07;;;;;;;4.97;1.60;;;;;;;;;;4975874;28;20026;-67
2023/11/25 14:10:53;;;;;;;2.13;1.10;;;;;;;;;;4976401;28;20485;-68
2023/11/25 14:13:38;;;;;;;5.35;1.45;;;;;;;;;;4975033;28;20041;-67
2023/11/25 14:16:24;;;;;;;2.55;1.80;;;;;;;;;;4976037;28;20069;-67
2023/11/25 14:19:10;;;;;;;1.70;1.52;;;;;;;;;;4991040;28;20022;-67
2023/11/25 14:21:55;;;;;;;1.80;1.70;;;;;;;;;;4994804;28;20104;-68
2023/11/25 14:24:41;;;;;;;2.00;1.60;;;;;;;;;;4995453;28;20029;-68
2023/11/25 14:27:26;;;;;;;4.30;1.65;;;;;;;;;;4994875;28;20027;-67
2023/11/25 14:30:17;;;;;;;4.35;1.55;;;;;;;;;;4994907;28;20518;-67
2023/11/25 14:33:03;;;;;;;3.35;1.50;;;;;;;;;;4976687;28;20165;-67
2023/11/25 14:35:49;;;;;;;4.13;1.95;;;;;;;;;;4968503;28;20035;-67
2023/11/25 14:38:35;;;;;;;3.15;1.45;;;;;;;;;;4974330;28;20054;-68
2023/11/25 14:41:24;;;;;;;1.85;1.38;;;;;;;;;;4995141;28;20069;-68
2023/11/25 14:44:10;;;;;;;5.78;1.48;;;;;;;;;;4981414;28;20026;-67
2023/11/25 14:46:56;;;;;;;5.65;2.25;;;;;;;;;;4994365;28;20446;-66
2023/11/25 14:49:42;;;;;;;5.93;3.88;;;;;;;;;;4980711;28;20439;-67
2023/11/25 14:52:27;;;;;;;4.57;1.83;;;;;;;;;;4994739;28;20034;-67
2023/11/25 14:55:13;;;;;;;4.60;2.65;;;;;;;;;;4994210;28;20022;-67
2023/11/25 14:57:59;;;;;;;4.18;2.72;;;;;;;;;;4994544;28;20057;-67
2023/11/25 15:00:45;;;;;;;5.97;2.92;;;;;;;;;;4993132;28;20023;-67
2023/11/25 15:03:31;;;;;;;7.90;3.60;;;;;;;;;;4994766;28;20057;-67
2023/11/25 15:06:16;;;;;;;10.00;4.78;;;;;;;;;;4991415;28;20042;-67
2023/11/25 15:09:02;;;;;;;9.77;3.97;;;;;;;;;;4994048;28;20434;-67
2023/11/25 15:11:48;;;;;;;22.55;9.07;;;;;;;;;;4976672;28;20019;-67
2023/11/25 15:14:34;;;;;;;17.13;7.07;;;;;;;;;;4975219;28;20041;-67
2023/11/25 15:17:21;;;;;;;14.95;6.55;;;;;;;;;;4976523;28;20070;-66
2023/11/25 15:20:07;;;;;;;22.35;7.97;;;;;;;;;;4982616;28;20104;-67
2023/11/25 15:22:53;;;;;;;33.33;12.00;;;;;;;;;;4994569;28;20041;-67
2023/11/25 15:25:40;;;;;;;24.58;9.60;;;;;;;;;;4975188;28;20031;-67
2023/11/25 15:28:25;;;;;;;20.73;8.40;;;;;;;;;;4974743;28;20511;-67
2023/11/25 15:31:12;;;;;;;15.80;5.43;;;;;;;;;;4974747;28;20403;-67
2023/11/25 15:33:57;;;;;;;7.82;3.72;;;;;;;;;;4976165;28;20037;-68
2023/11/25 15:36:43;;;;;;;7.13;3.80;;;;;;;;;;4974558;28;20054;-68
2023/11/25 15:39:29;;;;;;;6.18;3.42;;;;;;;;;;4960254;28;20412;-68
2023/11/25 15:42:15;;;;;;;14.10;6.78;;;;;;;;;;4975081;28;20027;-68
2023/11/25 15:45:00;;;;;;;12.77;5.78;;;;;;;;;;4973440;28;20026;-68
2023/11/25 15:47:46;;;;;;;10.63;5.45;;;;;;;;;;4974597;28;20065;-69
2023/11/25 15:50:32;;;;;;;11.70;3.40;;;;;;;;;;4973895;28;20027;-68
2023/11/25 15:53:17;;;;;;;10.27;5.05;;;;;;;;;;4974474;28;20019;-68
2023/11/25 15:56:03;;;;;;;6.90;2.60;;;;;;;;;;4974236;28;20512;-69
2023/11/25 15:58:50;;;;;;;3.22;1.80;;;;;;;;;;4975092;28;20039;-69
2023/11/25 16:01:36;;;;;;;2.13;1.40;;;;;;;;;;4973250;28;20023;-68
2023/11/25 16:04:23;;;;;;;5.03;2.00;;;;;;;;;;4974271;28;20023;-69
2023/11/25 16:07:12;;;;;;;6.53;2.40;;;;;;;;;;4961015;28;20030;-69
2023/11/25 16:09:58;;;;;;;6.65;2.58;;;;;;;;;;4973541;28;20023;-69
2023/11/25 16:12:45;;;;;;;9.32;4.47;;;;;;;;;;4973976;28;20523;-69
2023/11/25 16:15:31;;;;;;;8.57;4.80;;;;;;;;;;4973875;28;20038;-69
2023/11/25 16:18:16;;;;;;;20.38;11.20;;;;;;;;;;4973705;28;20443;-69
2023/11/25 16:21:02;;;;;;;24.30;10.35;;;;;;;;;;4974435;28;20023;-69
2023/11/25 16:23:48;;;;;;;34.38;11.88;;;;;;;;;;4973118;28;20035;-69
2023/11/25 16:26:34;;;;;;;57.13;15.98;;;;;;;;;;4973887;28;20030;-69
2023/11/25 16:29:19;;;;;;;66.15;20.67;;;;;;;;;;4975198;28;20093;-69
2023/11/25 16:32:05;;;;;;;40.35;13.63;;;;;;;;;;4974722;28;20108;-69
2023/11/25 16:34:51;;;;;;;24.05;9.45;;;;;;;;;;4973638;28;20570;-68
2023/11/25 16:37:37;;;;;;;49.03;15.13;;;;;;;;;;4974351;28;20549;-69